Station: Mount Ginini

  Atmospheric Gas Attenuation - ITU Rec 676-11   --------------- db/100km ---------------
Date Time Temp RH % AH g/m3 Dew Point Wind Direction Speed kph Gust kph Barometer mB Rainfall Since 9am 24GHz 47GHz 76GHz 122GHz 134GHz 241GHz
22 13:10 15.3 73 9.53 10.5 6 11 1013.1 0 21.5 27.0 42.8 112.4 108.7 374.9
22 13:00 14.6 73 9.14 9.8 7 17 1013.1 0 20.7 26.5 41.6 109.2 104.5 360.0
22 12:50 14.5 76 9.45 10.3 2 4 1013.1 0 21.4 27.1 42.9 112.7 108.8 375.0
22 12:40 14 72 8.68 9 9 17 1013.1 0 19.8 26.0 40.0 105.0 99.2 341.3
22 12:30 14.9 78 9.94 11.1 4 15 1013.1 0 22.4 27.8 44.7 117.5 114.9 396.2
22 12:20 15.7 73 9.77 10.9 4 11 1013.1 0 22.0 27.2 43.5 114.4 111.4 384.2
22 12:10 14.8 77 9.75 10.8 11 17 1013.1 0 22.0 27.5 43.9 115.5 112.4 387.7
22 12:00 14 74 8.93 9.4 7 17 1013.1 0 20.3 26.4 41.0 107.7 102.5 352.9
22 11:50 13.6 72 8.47 8.7 13 17 1013.1 0 19.3 25.7 39.4 103.3 96.9 333.3
22 11:40 13.8 68 8.1 8 9 15 1013.1 0 18.5 25.1 37.8 99.1 91.8 315.5
22 11:30 14.1 65 7.89 7.6 9 20 1013.1 0 18.1 24.7 36.8 96.6 88.8 304.9
22 11:20 14.1 61 7.4 6.7 7 13 1013.1 0 17.0 23.9 35.0 91.5 82.6 283.1
22 11:10 13.4 68 7.91 7.6 6 11 1013.1 0 18.1 24.9 37.2 97.6 89.8 308.5
22 11:00 13.6 65 7.65 7.2 9 17 1013.1 0 17.6 24.4 36.1 94.7 86.3 296.0
22 10:50 13.3 64 7.39 6.6 9 13 1013.1 0 17.0 24.1 35.3 92.3 83.3 285.5
22 10:40 13.9 76 9.11 9.7 7 11 1013.1 0 20.7 26.7 41.8 109.8 105.1 361.8
22 10:30 14 66 7.96 7.8 6 11 1013.1 0 18.2 24.8 37.2 97.4 89.8 308.4
22 10:20 13.3 78 9.01 9.5 6 9 1013.1 0 20.5 26.7 41.7 109.6 104.5 359.8
22 10:10 12.6 73 8.08 7.9 6 9 1013.1 0 18.5 25.4 38.3 100.4 93.0 319.5
22 10:00 12.1 75 8.04 7.8 7 15 1013.1 0 18.5 25.5 38.4 100.6 93.1 319.6
22 09:50 12.2 93 10.04 11.1 7 11 1013.1 0 22.8 28.8 46.7 122.8 120.4 415.2
22 09:40 11.6 98 10.19 11.3 4 9 1013.1 0 23.1 29.3 47.7 125.5 123.5 426.0
22 09:30 10.7 99 9.73 10.5 7 13 1013.1 0 22.2 28.8 46.2 121.6 118.3 407.8
22 09:20 9.5 100 9.1 9.6 6 7 1013.1 0 20.9 28.0 44.2 116.1 111.1 382.4
22 09:10 8.9 100 8.76 9.2 6 7 1013.1 0 20.2 27.6 43.0 113.0 107.1 368.4
22 09:00 8.2 100 8.38 8.2 11 17 1013.1 0 19.4 27.2 41.8 109.7 102.7 352.8
22 08:50 8.1 100 8.32 8.2 11 15 1013.1 0 19.3 27.1 41.6 109.1 102.0 350.3
22 08:40 7.8 100 8.16 7.9 7 11 1013.1 0 18.9 26.9 41.0 107.7 100.1 343.7
22 08:30 7.7 100 8.11 7.7 11 17 1013.1 0 18.8 26.9 40.9 107.3 99.5 341.7
22 08:20 7.1 100 7.8 7.2 9 11 1013.1 0 18.2 26.5 39.9 104.6 95.9 329.0
22 08:10 6.8 100 7.65 6.9 13 19 1013.1 0 17.9 26.4 39.4 103.3 94.2 322.9
22 08:00 7 100 7.75 7 13 22 1013.1 0 18.1 26.5 39.7 104.1 95.4 326.9
22 07:50 6.6 100 7.55 6.7 13 22 1013.1 0 17.7 26.3 39.0 102.4 93.0 318.8
22 07:40 6.5 100 7.5 6.6 17 19 1013.1 0 17.6 26.2 38.9 101.9 92.5 316.7
22 07:30 6.3 100 7.41 6.3 15 24 1013.1 0 17.4 26.1 38.6 101.2 91.4 313.1
22 07:20 6.1 100 7.31 6.2 17 24 1013.1 0 17.2 26.0 38.3 100.3 90.3 309.0
22 07:10 6 100 7.26 6.1 20 24 1013.1 0 17.1 25.9 38.1 99.9 89.7 307.0
22 07:00 6 100 7.26 6 15 26 1013.1 0 17.1 25.9 38.1 99.9 89.7 307.0
22 06:50 6.1 100 7.31 6.2 15 19 1013.1 0 17.2 26.0 38.3 100.3 90.3 309.0
22 06:40 5.9 100 7.22 6 11 19 1013.1 0 17.0 25.9 38.0 99.5 89.3 305.4
22 06:30 5.9 100 7.22 5.9 17 28 1013.1 0 17.0 25.9 38.0 99.5 89.3 305.4
22 06:20 5.9 100 7.22 6 19 24 1013.1 0 17.0 25.9 38.0 99.5 89.3 305.4
22 06:10 5.8 100 7.17 5.9 17 22 1013.1 0 16.9 25.8 37.8 99.1 88.7 303.4
22 06:00 5.7 100 7.12 5.7 20 35 1013.1 0 16.8 25.8 37.7 98.7 88.1 301.3
22 05:50 5.4 100 6.98 5.5 19 24 1013.1 0 16.5 25.6 37.2 97.5 86.5 295.6
22 05:30 5.4 100 6.98 5.4 19 30 1013.1 0 16.5 25.6 37.2 97.5 86.5 295.6
22 05:20 5.5 100 7.03 5.6 22 33 1013.1 0 16.6 25.7 37.4 97.9 87.1 297.7
22 05:10 5.6 100 7.07 5.7 20 30 1013.1 0 16.7 25.7 37.5 98.2 87.5 299.3
22 05:00 5.6 100 7.07 5.6 20 33 1013.1 0 16.7 25.7 37.5 98.2 87.5 299.3
22 04:50 5.5 100 7.03 5.6 22 30 1013.1 0 16.6 25.7 37.4 97.9 87.1 297.7
22 04:40 5.6 100 7.07 5.7 20 28 1013.1 0 16.7 25.7 37.5 98.2 87.5 299.3
22 04:30 5.5 100 7.03 5.5 24 37 1013.1 0 16.6 25.7 37.4 97.9 87.1 297.7
22 04:20 5.3 100 6.94 5.4 26 37 1013.1 0 16.4 25.6 37.1 97.1 86.0 294.1
22 04:10 5.3 100 6.94 5.4 24 33 1013.1 0 16.4 25.6 37.1 97.1 86.0 294.1
22 04:00 5.5 100 7.03 5.5 24 37 1013.1 0 16.6 25.7 37.4 97.9 87.1 297.7
22 03:50 5.5 100 7.03 5.6 26 33 1013.1 0 16.6 25.7 37.4 97.9 87.1 297.7
22 03:40 5.4 100 6.98 5.5 26 37 1013.1 0 16.5 25.6 37.2 97.5 86.5 295.6
22 03:30 5.4 100 6.98 5.4 20 35 1013.1 0 16.5 25.6 37.2 97.5 86.5 295.6
22 03:20 5.4 100 6.98 5.5 22 30 1013.1 0 16.5 25.6 37.2 97.5 86.5 295.6
22 03:10 5.4 100 6.98 5.5 22 33 1013.1 0 16.5 25.6 37.2 97.5 86.5 295.6
22 03:00 5.4 100 6.98 5.4 20 32 1013.1 0 16.5 25.6 37.2 97.5 86.5 295.6
22 02:50 5.4 100 6.98 5.5 22 35 1013.1 0 16.5 25.6 37.2 97.5 86.5 295.6
22 02:40 5.5 100 7.03 5.6 22 30 1013.1 0 16.6 25.7 37.4 97.9 87.1 297.7
22 02:30 5.6 100 7.07 5.6 22 35 1013.1 0 16.7 25.7 37.5 98.2 87.5 299.3
22 02:20 5.6 100 7.07 5.7 30 39 1013.1 0 16.7 25.7 37.5 98.2 87.5 299.3
22 02:10 5.7 100 7.12 5.8 26 35 1013.1 0 16.8 25.8 37.7 98.7 88.1 301.3
22 02:00 5.8 100 7.17 5.8 20 37 1013.1 0 16.9 25.8 37.8 99.1 88.7 303.4
22 01:50 5.8 100 7.17 5.9 20 26 1013.1 0 16.9 25.8 37.8 99.1 88.7 303.4
22 01:40 5.8 100 7.17 5.9 24 35 1013.1 0 16.9 25.8 37.8 99.1 88.7 303.4
22 01:30 5.9 100 7.22 5.9 26 41 1013.1 0 17.0 25.9 38.0 99.5 89.3 305.4
22 01:20 6.1 100 7.31 6.2 22 30 1013.1 0 17.2 26.0 38.3 100.3 90.3 309.0
22 01:10 6.1 100 7.31 6.2 28 37 1013.1 0 17.2 26.0 38.3 100.3 90.3 309.0
22 01:00 6.1 100 7.31 6.1 28 44 1013.1 0 17.2 26.0 38.3 100.3 90.3 309.0
22 00:50 6.3 100 7.41 6.4 28 37 1013.1 0 17.4 26.1 38.6 101.2 91.4 313.1
22 00:40 6.3 100 7.41 6.4 30 41 1013.1 0 17.4 26.1 38.6 101.2 91.4 313.1
22 00:30 6.4 100 7.46 6.4 26 39 1013.1 0 17.5 26.2 38.8 101.6 92.0 315.2
22 00:20 6.4 100 7.46 6.5 30 41 1013.1 0 17.5 26.2 38.8 101.6 92.0 315.2
22 00:10 6.6 100 7.55 6.7 26 37 1013.1 0 17.7 26.3 39.0 102.4 93.0 318.8
22 00:00 6.6 100 7.55 6.6 20 41 1013.1 0 17.7 26.3 39.0 102.4 93.0 318.8
21 23:50 6.7 100 7.6 6.8 22 28 1013.1 0 17.8 26.3 39.2 102.8 93.6 320.8
21 23:40 6.9 100 7.7 7 26 37 1013.1 0 18.0 26.4 39.5 103.7 94.8 324.9
21 23:30 7 100 7.75 7 24 39 1013.1 0 18.1 26.5 39.7 104.1 95.4 326.9
21 23:20 7 100 7.75 7.1 26 43 1013.1 0 18.1 26.5 39.7 104.1 95.4 326.9
21 23:10 7.1 100 7.8 7.2 24 37 1013.1 0 18.2 26.5 39.9 104.6 95.9 329.0
21 23:00 7.2 100 7.85 7.2 26 44 1013.1 0 18.3 26.6 40.0 105.0 96.5 331.0
21 22:50 7.3 100 7.9 7.4 24 37 1013.1 0 18.4 26.7 40.2 105.4 97.1 333.0
21 22:40 7.4 100 7.96 7.5 24 35 1013.1 0 18.5 26.7 40.4 106.0 97.8 335.6
21 22:30 7.5 100 8.01 7.5 24 39 1013.1 0 18.6 26.8 40.6 106.4 98.4 337.6
21 22:20 7.6 100 8.06 7.7 26 33 1013.1 0 18.7 26.8 40.7 106.8 99.0 339.6
21 22:10 7.7 100 8.11 7.8 20 32 1013.1 0 18.8 26.9 40.9 107.3 99.5 341.7
21 22:00 7.8 100 8.16 7.8 22 37 1013.1 0 18.9 26.9 41.0 107.7 100.1 343.7
21 21:50 7.9 100 8.22 8 26 33 1013.1 0 19.1 27.0 41.2 108.3 100.8 346.2
21 21:40 8 100 8.27 8.1 26 33 1013.1 0 19.2 27.1 41.4 108.7 101.4 348.2
21 21:30 8.1 100 8.32 8.1 22 35 1013.1 0 19.3 27.1 41.6 109.1 102.0 350.3
21 21:20 8.3 100 8.43 8.4 24 37 1013.1 0 19.5 27.3 41.9 110.1 103.3 354.8
21 21:10 8.4 100 8.49 8.5 20 30 1013.1 0 19.6 27.3 42.1 110.7 104.0 357.3
21 21:00 8.6 100 8.6 8.6 20 37 1013.1 0 19.8 27.5 42.5 111.6 105.3 361.8
21 20:50 8.8 100 8.71 8.9 20 30 1013.1 0 20.1 27.6 42.9 112.6 106.6 366.4
21 20:40 9.1 100 8.88 9.1 17 22 1013.1 0 20.4 27.8 43.4 114.1 108.6 373.4
21 20:30 9.1 100 8.88 9.1 19 37 1013.1 0 20.4 27.8 43.4 114.1 108.6 373.4

Last Refresh: 22-Jan-2022 12:58:18

Bureau of Meteorology